createdAt,value
2023-05-05T00:01:03.158Z,100493.80
2023-05-05T00:03:31.104Z,100496.80
2023-05-05T00:05:58.986Z,100501.40
2023-05-05T00:08:27.796Z,100496.80
2023-05-05T00:10:56.535Z,100492.40
2023-05-05T00:13:24.799Z,100497.00
2023-05-05T00:15:54.107Z,100495.60
2023-05-05T00:18:22.265Z,100495.80
2023-05-05T00:20:50.224Z,100492.60
2023-05-05T00:23:20.358Z,100494.60
2023-05-05T00:25:48.221Z,100492.00
2023-05-05T00:28:16.044Z,100491.00
2023-05-05T00:30:43.922Z,100488.00
2023-05-05T00:33:12.253Z,100479.60
2023-05-05T00:35:40.416Z,100473.80
2023-05-05T00:38:08.592Z,100474.20
2023-05-05T00:40:38.028Z,100474.80
2023-05-05T00:43:07.722Z,100471.60
2023-05-05T00:45:37.434Z,100472.40
2023-05-05T00:48:06.943Z,100470.80
2023-05-05T00:50:35.187Z,100472.40
2023-05-05T00:53:06.636Z,100476.00
2023-05-05T00:55:35.303Z,100476.00
2023-05-05T00:58:04.467Z,100475.80
2023-05-05T01:00:33.053Z,100476.40
2023-05-05T01:03:01.422Z,100474.20
2023-05-05T01:06:02.754Z,100468.40
2023-05-05T01:09:28.236Z,100472.40
2023-05-05T01:12:15.790Z,100470.80
2023-05-05T01:15:01.408Z,100473.60
2023-05-05T01:17:47.543Z,100475.00
2023-05-05T01:20:42.226Z,100473.80
2023-05-05T01:23:24.103Z,100471.60
2023-05-05T01:26:24.405Z,100470.40
2023-05-05T01:29:09.625Z,100472.20
2023-05-05T01:32:04.242Z,100467.40
2023-05-05T01:34:42.826Z,100466.00
2023-05-05T01:37:18.997Z,100465.00
2023-05-05T01:39:52.689Z,100465.80
2023-05-05T01:42:22.840Z,100466.00
2023-05-05T01:44:54.176Z,100465.20
2023-05-05T01:47:23.803Z,100460.20
2023-05-05T01:49:53.775Z,100458.20
2023-05-05T01:52:23.408Z,100452.40
2023-05-05T01:54:53.253Z,100450.40
2023-05-05T01:57:26.524Z,100455.80
2023-05-05T01:59:56.194Z,100453.80
2023-05-05T02:02:28.946Z,100458.60
2023-05-05T02:04:59.077Z,100461.80
2023-05-05T02:07:28.249Z,100463.40
2023-05-05T02:09:56.988Z,100464.20
2023-05-05T02:12:26.614Z,100466.60
2023-05-05T02:14:59.854Z,100457.00
2023-05-05T02:17:29.506Z,100462.80
2023-05-05T02:20:01.112Z,100462.40
2023-05-05T02:22:29.044Z,100459.60
2023-05-05T02:24:57.101Z,100458.20
2023-05-05T02:27:27.250Z,100453.00
2023-05-05T02:30:07.346Z,100450.40
2023-05-05T02:32:46.840Z,100451.20
2023-05-05T02:35:22.347Z,100458.80
2023-05-05T02:38:05.508Z,100459.20
2023-05-05T02:40:42.047Z,100462.60
2023-05-05T02:43:16.811Z,100461.20
2023-05-05T02:45:45.755Z,100463.60
2023-05-05T02:48:14.288Z,100464.80
2023-05-05T02:50:42.160Z,100462.40
2023-05-05T02:53:15.277Z,100463.40
2023-05-05T02:55:57.304Z,100457.20
2023-05-05T02:58:34.605Z,100453.60
2023-05-05T03:01:25.052Z,100456.40
2023-05-05T03:04:12.061Z,100453.00
2023-05-05T03:06:51.151Z,100448.40
2023-05-05T03:09:30.859Z,100451.20
2023-05-05T03:12:06.745Z,100457.40
2023-05-05T03:14:45.552Z,100454.20
2023-05-05T03:17:18.353Z,100454.40
2023-05-05T03:19:49.368Z,100458.00
2023-05-05T03:22:17.657Z,100448.80
2023-05-05T03:24:51.567Z,100447.20
2023-05-05T03:27:22.730Z,100450.60
2023-05-05T03:29:50.533Z,100448.80
2023-05-05T03:32:18.562Z,100449.40
2023-05-05T03:34:46.797Z,100449.60
2023-05-05T03:37:14.902Z,100446.80
2023-05-05T03:39:42.851Z,100442.80
2023-05-05T03:42:10.806Z,100445.60
2023-05-05T03:44:38.662Z,100444.20
2023-05-05T03:47:06.614Z,100438.80
2023-05-05T03:49:35.292Z,100438.80
2023-05-05T03:52:03.888Z,100442.40
2023-05-05T03:54:31.863Z,100447.00
2023-05-05T03:56:59.954Z,100449.00
2023-05-05T03:59:27.933Z,100446.40
2023-05-05T04:01:55.724Z,100453.40
2023-05-05T04:04:23.736Z,100452.80
2023-05-05T04:06:52.496Z,100453.00
2023-05-05T04:09:20.505Z,100453.20
2023-05-05T04:11:48.481Z,100454.40
2023-05-05T04:14:16.393Z,100455.20
2023-05-05T04:16:44.356Z,100452.80
2023-05-05T04:19:13.215Z,100450.40
2023-05-05T04:21:41.358Z,100451.00
2023-05-05T04:24:10.420Z,100450.60
2023-05-05T04:26:38.314Z,100456.20
2023-05-05T04:29:06.099Z,100458.40
2023-05-05T04:31:34.800Z,100458.20
2023-05-05T04:34:02.774Z,100455.80
2023-05-05T04:36:30.793Z,100456.60
2023-05-05T04:38:58.959Z,100457.40
2023-05-05T04:41:28.940Z,100465.40
2023-05-05T04:43:58.050Z,100462.40
2023-05-05T04:46:26.374Z,100469.60
2023-05-05T04:48:54.365Z,100467.40
2023-05-05T04:51:22.299Z,100468.60
2023-05-05T04:53:50.043Z,100471.00
2023-05-05T04:56:18.738Z,100469.60
2023-05-05T04:58:46.576Z,100468.40
2023-05-05T05:01:14.391Z,100466.60
2023-05-05T05:03:42.497Z,100471.40
2023-05-05T05:06:10.511Z,100470.00
2023-05-05T05:08:38.314Z,100468.80
2023-05-05T05:11:06.481Z,100466.40
2023-05-05T05:13:34.663Z,100469.40
2023-05-05T05:16:02.725Z,100472.80
2023-05-05T05:18:30.585Z,100474.80
2023-05-05T05:20:58.531Z,100475.00
2023-05-05T05:23:26.367Z,100479.60
2023-05-05T05:25:54.549Z,100479.40
2023-05-05T05:28:23.541Z,100475.80
2023-05-05T05:30:54.193Z,100480.80
2023-05-05T05:33:22.385Z,100479.60
2023-05-05T05:35:50.644Z,100483.40
2023-05-05T05:38:19.605Z,100485.40
2023-05-05T05:40:48.225Z,100484.40
2023-05-05T05:43:16.186Z,100492.40
2023-05-05T05:45:44.042Z,100485.40
2023-05-05T05:48:12.223Z,100488.40
2023-05-05T05:50:39.974Z,100490.40
2023-05-05T05:53:08.081Z,100492.20
2023-05-05T05:55:36.159Z,100487.80
2023-05-05T05:58:04.485Z,100493.80
2023-05-05T06:00:32.510Z,100493.60
2023-05-05T06:03:03.518Z,100496.60
2023-05-05T06:05:33.500Z,100489.20
2023-05-05T06:08:01.421Z,100494.60
2023-05-05T06:10:30.134Z,100498.80
2023-05-05T06:13:02.270Z,100493.80
2023-05-05T06:15:30.629Z,100491.20
2023-05-05T06:17:58.904Z,100491.40
2023-05-05T06:20:27.590Z,100498.80
2023-05-05T06:22:55.992Z,100502.20
2023-05-05T06:25:23.961Z,100507.00
2023-05-05T06:27:52.206Z,100504.60
2023-05-05T06:30:20.067Z,100504.60
2023-05-05T06:32:47.799Z,100503.40
2023-05-05T06:35:15.879Z,100500.80
2023-05-05T06:37:44.351Z,100504.80
2023-05-05T06:40:13.047Z,100509.40
2023-05-05T06:42:41.456Z,100505.00
2023-05-05T06:45:11.575Z,100499.00
2023-05-05T06:47:39.529Z,100498.80
2023-05-05T06:50:09.289Z,100496.60
2023-05-05T06:52:37.433Z,100500.40
2023-05-05T06:55:06.405Z,100502.60
2023-05-05T06:57:34.180Z,100498.60
2023-05-05T07:00:05.959Z,100502.80
2023-05-05T07:02:33.992Z,100500.00
2023-05-05T07:05:02.037Z,100502.60
2023-05-05T07:07:31.702Z,100509.00
2023-05-05T07:09:59.553Z,100511.20
2023-05-05T07:12:31.146Z,100521.00
2023-05-05T07:14:59.024Z,100525.40
2023-05-05T07:17:26.877Z,100522.80
2023-05-05T07:19:55.105Z,100524.00
2023-05-05T07:22:22.863Z,100524.00
2023-05-05T07:24:53.392Z,100524.80
2023-05-05T07:27:22.628Z,100524.60
2023-05-05T07:29:50.473Z,100528.80
2023-05-05T07:32:18.606Z,100528.80
2023-05-05T07:34:46.541Z,100530.40
2023-05-05T07:37:14.484Z,100532.00
2023-05-05T07:39:42.324Z,100527.80
2023-05-05T07:42:10.898Z,100529.20
2023-05-05T07:44:39.245Z,100535.00
2023-05-05T07:47:07.072Z,100536.40
2023-05-05T07:49:34.914Z,100537.20
2023-05-05T07:52:03.003Z,100542.40
2023-05-05T07:54:31.348Z,100546.80
2023-05-05T07:56:59.455Z,100544.20
2023-05-05T07:59:27.619Z,100549.20
2023-05-05T08:01:55.547Z,100548.80
2023-05-05T08:04:23.374Z,100545.00
2023-05-05T08:06:51.226Z,100556.60
2023-05-05T08:09:18.977Z,100555.80
2023-05-05T08:11:46.757Z,100559.20
2023-05-05T08:14:15.220Z,100551.60
2023-05-05T08:16:43.036Z,100552.40
2023-05-05T08:19:17.855Z,100557.20
2023-05-05T08:21:56.181Z,100554.80
2023-05-05T08:24:24.031Z,100558.00
2023-05-05T08:26:51.914Z,100558.40
2023-05-05T08:29:20.101Z,100561.60
2023-05-05T08:31:48.095Z,100560.60
2023-05-05T08:34:15.975Z,100559.20
2023-05-05T08:36:43.885Z,100562.60
2023-05-05T08:39:11.692Z,100566.80
2023-05-05T08:41:39.588Z,100564.00
2023-05-05T08:44:08.964Z,100567.20
2023-05-05T08:46:37.988Z,100569.80
2023-05-05T08:49:11.204Z,100573.00
2023-05-05T08:51:44.298Z,100566.40
2023-05-05T08:54:20.176Z,100569.20
2023-05-05T08:56:51.532Z,100569.40
2023-05-05T08:59:25.123Z,100570.00
2023-05-05T09:01:53.971Z,100573.60
2023-05-05T09:04:21.934Z,100576.40
2023-05-05T09:06:50.027Z,100569.80
2023-05-05T09:09:19.022Z,100570.20
2023-05-05T09:11:47.395Z,100575.00
2023-05-05T09:14:15.182Z,100577.20
2023-05-05T09:16:44.222Z,100585.40
2023-05-05T09:19:12.054Z,100587.00
2023-05-05T09:21:49.033Z,100592.40
2023-05-05T09:24:16.852Z,100591.40
2023-05-05T09:26:47.315Z,100588.60
2023-05-05T09:29:22.730Z,100585.20
2023-05-05T09:32:11.217Z,100585.40
2023-05-05T09:34:39.179Z,100580.00
2023-05-05T09:37:07.020Z,100579.00
2023-05-05T09:39:35.035Z,100579.80
2023-05-05T09:42:03.300Z,100580.20
2023-05-05T09:44:38.105Z,100572.80
2023-05-05T09:47:14.791Z,100577.00
2023-05-05T09:49:59.470Z,100570.20
2023-05-05T09:52:27.994Z,100575.60
2023-05-05T09:54:57.445Z,100580.20
2023-05-05T09:57:28.183Z,100576.80
2023-05-05T10:00:01.795Z,100582.40
2023-05-05T10:02:39.041Z,100578.80
2023-05-05T10:05:12.864Z,100571.20
2023-05-05T10:07:43.520Z,100573.80
2023-05-05T10:10:15.526Z,100570.80
2023-05-05T10:12:46.457Z,100573.40
2023-05-05T10:15:16.286Z,100570.20
2023-05-05T10:20:22.706Z,100561.40
2023-05-05T10:22:53.417Z,100558.40
2023-05-05T10:25:38.434Z,100555.80
2023-05-05T10:28:11.801Z,100553.20
2023-05-05T10:30:46.337Z,100545.80
2023-05-05T10:33:31.604Z,100546.80
2023-05-05T10:36:06.642Z,100543.20
2023-05-05T10:38:36.094Z,100540.80
2023-05-05T10:41:04.409Z,100542.20
2023-05-05T10:43:32.770Z,100538.80
2023-05-05T10:46:01.505Z,100544.60
2023-05-05T10:48:45.045Z,100532.80
2023-05-05T10:51:39.370Z,100532.80
2023-05-05T10:54:24.564Z,100531.80
2023-05-05T10:56:53.221Z,100527.40
2023-05-05T10:59:39.128Z,100522.80
2023-05-05T11:02:27.313Z,100519.00
2023-05-05T11:05:18.354Z,100518.40
2023-05-05T11:07:49.937Z,100516.40
2023-05-05T11:10:21.012Z,100511.80
2023-05-05T11:12:52.102Z,100505.40
2023-05-05T11:15:33.571Z,100506.00
2023-05-05T11:18:07.323Z,100506.80
2023-05-05T11:20:37.103Z,100496.80
2023-05-05T11:23:05.377Z,100501.20
2023-05-05T11:25:37.063Z,100499.60
2023-05-05T11:28:13.683Z,100499.80
2023-05-05T11:30:57.902Z,100504.60
2023-05-05T11:33:30.718Z,100498.00
2023-05-05T11:36:08.834Z,100498.60
2023-05-05T11:38:36.553Z,100494.80
2023-05-05T11:41:17.799Z,100495.00
2023-05-05T11:43:45.889Z,100490.60
2023-05-05T11:46:17.323Z,100489.60
2023-05-05T11:48:52.023Z,100483.00
2023-05-05T11:51:20.301Z,100485.60
2023-05-05T11:53:49.637Z,100490.20
2023-05-05T11:56:19.678Z,100487.60
2023-05-05T11:59:10.819Z,100494.60
2023-05-05T12:01:42.613Z,100495.00
2023-05-05T12:04:16.145Z,100494.60
2023-05-05T12:06:46.184Z,100492.20
2023-05-05T12:09:16.899Z,100489.00
2023-05-05T12:11:49.687Z,100488.40
2023-05-05T12:14:17.485Z,100483.60
2023-05-05T12:17:07.086Z,100473.80
2023-05-05T12:19:36.299Z,100463.80
2023-05-05T12:22:05.236Z,100467.20
2023-05-05T12:24:33.191Z,100463.80
2023-05-05T12:27:12.112Z,100466.60
2023-05-05T12:29:39.929Z,100461.40
2023-05-05T12:32:19.747Z,100458.80
2023-05-05T12:34:49.222Z,100457.00
2023-05-05T12:37:19.691Z,100463.60
2023-05-05T12:39:48.314Z,100452.80
2023-05-05T12:42:17.118Z,100462.00
2023-05-05T12:44:45.035Z,100462.60
2023-05-05T12:47:14.172Z,100458.20
2023-05-05T12:49:50.829Z,100456.80
2023-05-05T12:52:19.035Z,100459.40
2023-05-05T12:54:54.996Z,100459.00
2023-05-05T12:57:23.655Z,100461.20
2023-05-05T12:59:52.863Z,100460.40
2023-05-05T13:02:21.186Z,100458.20
2023-05-05T13:04:54.509Z,100461.00
2023-05-05T13:07:22.492Z,100456.20
2023-05-05T13:09:51.331Z,100454.80
2023-05-05T13:12:19.319Z,100450.60
2023-05-05T13:14:47.304Z,100441.60
2023-05-05T13:17:15.298Z,100445.00
2023-05-05T13:19:46.270Z,100446.20
2023-05-05T13:22:14.552Z,100443.00
2023-05-05T13:24:51.913Z,100442.80
2023-05-05T13:27:20.729Z,100445.00
2023-05-05T13:29:48.672Z,100442.80
2023-05-05T13:32:16.655Z,100448.00
2023-05-05T13:34:44.464Z,100440.80
2023-05-05T13:37:12.581Z,100438.20
2023-05-05T13:39:40.405Z,100437.20
2023-05-05T13:42:08.333Z,100434.80
2023-05-05T13:44:36.261Z,100435.80
2023-05-05T13:47:04.215Z,100431.20
2023-05-05T13:49:32.058Z,100435.20
2023-05-05T13:52:00.179Z,100433.60
2023-05-05T13:54:28.130Z,100434.40
2023-05-05T13:56:55.897Z,100430.80
2023-05-05T13:59:25.815Z,100425.60
2023-05-05T14:01:54.028Z,100430.00
2023-05-05T14:04:21.959Z,100423.40
2023-05-05T14:06:49.845Z,100424.00
2023-05-05T14:09:17.780Z,100425.00
2023-05-05T14:11:45.517Z,100429.40
2023-05-05T14:14:13.232Z,100431.80
2023-05-05T14:16:41.203Z,100428.80
2023-05-05T14:19:09.091Z,100433.00
2023-05-05T14:21:36.913Z,100430.80
2023-05-05T14:24:05.295Z,100439.20
2023-05-05T14:26:33.105Z,100437.60
2023-05-05T14:29:00.924Z,100442.00
2023-05-05T14:31:29.734Z,100435.60
2023-05-05T14:33:57.537Z,100434.20
2023-05-05T14:36:25.415Z,100427.60
2023-05-05T14:38:53.215Z,100419.60
2023-05-05T14:41:21.386Z,100415.40
2023-05-05T14:43:49.185Z,100410.40
2023-05-05T14:46:17.122Z,100409.20
2023-05-05T14:48:46.479Z,100417.60
2023-05-05T14:51:15.970Z,100422.20
2023-05-05T14:53:43.831Z,100425.00
2023-05-05T14:56:11.601Z,100417.60
2023-05-05T14:58:39.687Z,100421.40
2023-05-05T15:01:07.826Z,100417.80
2023-05-05T15:03:35.882Z,100418.00
2023-05-05T15:06:04.839Z,100422.00
2023-05-05T15:08:32.708Z,100422.60
2023-05-05T15:11:01.014Z,100418.00
2023-05-05T15:13:29.731Z,100415.60
2023-05-05T15:15:57.727Z,100415.40
2023-05-05T15:18:25.635Z,100419.60
2023-05-05T15:20:53.459Z,100411.60
2023-05-05T15:23:21.504Z,100409.80
2023-05-05T15:25:49.390Z,100410.20
2023-05-05T15:28:18.720Z,100408.60
2023-05-05T15:30:46.508Z,100409.00
2023-05-05T15:33:14.360Z,100412.40
2023-05-05T15:35:42.702Z,100404.60
2023-05-05T15:38:10.631Z,100408.60
2023-05-05T15:40:38.420Z,100408.80
2023-05-05T15:43:06.868Z,100407.00
2023-05-05T15:45:35.175Z,100400.20
2023-05-05T15:48:03.143Z,100406.60
2023-05-05T15:50:30.995Z,100405.00
2023-05-05T15:52:59.066Z,100402.80
2023-05-05T15:55:27.787Z,100400.40
2023-05-05T15:57:55.585Z,100399.80
2023-05-05T16:00:23.505Z,100407.00
2023-05-05T16:02:51.438Z,100408.40
2023-05-05T16:05:22.117Z,100410.20
2023-05-05T16:07:51.798Z,100411.00
2023-05-05T16:10:20.539Z,100405.00
2023-05-05T16:12:48.891Z,100404.80
2023-05-05T16:15:16.819Z,100410.60
2023-05-05T16:17:44.638Z,100411.20
2023-05-05T16:20:12.818Z,100409.00
2023-05-05T16:22:41.112Z,100406.60
2023-05-05T16:25:09.699Z,100409.00
2023-05-05T16:27:37.727Z,100411.20
2023-05-05T16:30:07.203Z,100413.60
2023-05-05T16:32:35.040Z,100423.60
2023-05-05T16:35:02.982Z,100418.00
2023-05-05T16:37:30.950Z,100422.80
2023-05-05T16:40:00.727Z,100426.80
2023-05-05T16:42:28.657Z,100424.00
2023-05-05T16:44:56.425Z,100423.00
2023-05-05T16:47:24.286Z,100428.00
2023-05-05T16:49:52.576Z,100421.00
2023-05-05T16:52:20.386Z,100427.40
2023-05-05T16:54:55.217Z,100425.80
2023-05-05T16:57:23.969Z,100419.20
2023-05-05T16:59:57.294Z,100420.80
2023-05-05T17:02:25.185Z,100423.60
2023-05-05T17:04:53.107Z,100419.80
2023-05-05T17:07:21.398Z,100416.20
2023-05-05T17:09:49.651Z,100417.60
2023-05-05T17:12:17.615Z,100416.00
2023-05-05T17:14:46.019Z,100415.40
2023-05-05T17:17:14.296Z,100418.00
2023-05-05T17:19:42.734Z,100416.00
2023-05-05T17:22:10.780Z,100412.00
2023-05-05T17:24:38.702Z,100415.00
2023-05-05T17:27:06.522Z,100420.20
2023-05-05T17:29:40.752Z,100415.00
2023-05-05T17:32:09.360Z,100413.80
2023-05-05T17:34:37.785Z,100414.20
2023-05-05T17:37:05.724Z,100414.60
2023-05-05T17:39:33.543Z,100417.60
2023-05-05T17:42:01.394Z,100417.00
2023-05-05T17:44:29.275Z,100420.20
2023-05-05T17:46:57.281Z,100420.80
2023-05-05T17:49:25.508Z,100425.80
2023-05-05T17:51:53.766Z,100429.20
2023-05-05T17:54:21.749Z,100434.40
2023-05-05T17:56:49.550Z,100431.00
2023-05-05T17:59:18.290Z,100434.60
2023-05-05T18:01:46.127Z,100439.40
2023-05-05T18:04:14.046Z,100442.20
2023-05-05T18:06:41.915Z,100440.40
2023-05-05T18:09:11.247Z,100437.40
2023-05-05T18:11:39.252Z,100441.40
2023-05-05T18:14:07.055Z,100444.60
2023-05-05T18:16:34.914Z,100450.20
2023-05-05T18:19:03.503Z,100455.20
2023-05-05T18:21:32.066Z,100462.80
2023-05-05T18:24:11.523Z,100462.80
2023-05-05T18:26:52.134Z,100462.00
2023-05-05T18:29:21.952Z,100472.00
2023-05-05T18:31:56.988Z,100468.00
2023-05-05T18:34:29.471Z,100464.80
2023-05-05T18:36:58.956Z,100470.80
2023-05-05T18:39:28.144Z,100470.00
2023-05-05T18:41:55.948Z,100468.60
2023-05-05T18:44:24.000Z,100479.00
2023-05-05T18:46:52.021Z,100479.80
2023-05-05T18:49:19.905Z,100486.20
2023-05-05T18:51:47.696Z,100486.00
2023-05-05T18:54:15.643Z,100482.20
2023-05-05T18:56:43.791Z,100490.00
2023-05-05T18:59:11.780Z,100488.60
2023-05-05T19:01:39.809Z,100496.00
2023-05-05T19:04:18.794Z,100501.80
2023-05-05T19:06:54.834Z,100497.80
2023-05-05T19:09:22.581Z,100499.40
2023-05-05T19:11:51.055Z,100505.40
2023-05-05T19:14:19.045Z,100513.20
2023-05-05T19:16:47.145Z,100512.80
2023-05-05T19:19:15.287Z,100520.80
2023-05-05T19:21:43.237Z,100520.20
2023-05-05T19:24:11.948Z,100520.80
2023-05-05T19:26:40.031Z,100526.20
2023-05-05T19:29:07.856Z,100523.00
2023-05-05T19:31:36.553Z,100523.60
2023-05-05T19:34:05.352Z,100522.60
2023-05-05T19:36:34.717Z,100524.60
2023-05-05T19:39:05.472Z,100523.20
2023-05-05T19:41:35.452Z,100526.00
2023-05-05T19:44:03.653Z,100525.20
2023-05-05T19:46:32.412Z,100529.80
2023-05-05T19:49:01.417Z,100539.40
2023-05-05T19:51:29.366Z,100539.40
2023-05-05T19:53:57.334Z,100542.60
2023-05-05T19:56:26.032Z,100541.20
2023-05-05T19:58:57.346Z,100548.00
2023-05-05T20:01:25.588Z,100546.00
2023-05-05T20:03:56.048Z,100540.40
2023-05-05T20:06:24.822Z,100538.80
2023-05-05T20:08:54.683Z,100542.20
2023-05-05T20:11:23.133Z,100543.40
2023-05-05T20:13:51.705Z,100548.00
2023-05-05T20:16:21.530Z,100559.60
2023-05-05T20:18:49.784Z,100558.80
2023-05-05T20:21:18.356Z,100561.80
2023-05-05T20:23:46.568Z,100565.80
2023-05-05T20:26:14.607Z,100573.00
2023-05-05T20:28:45.365Z,100573.80
2023-05-05T20:31:14.694Z,100570.20
2023-05-05T20:33:42.688Z,100571.40
2023-05-05T20:36:11.447Z,100571.60
2023-05-05T20:38:39.277Z,100571.60
2023-05-05T20:41:07.263Z,100569.60
2023-05-05T20:43:36.749Z,100565.80
2023-05-05T20:46:04.570Z,100569.40
2023-05-05T20:48:32.320Z,100568.40
2023-05-05T20:51:04.400Z,100567.60
2023-05-05T20:53:32.898Z,100567.40
2023-05-05T20:56:00.931Z,100567.80
2023-05-05T20:58:30.122Z,100569.40
2023-05-05T21:00:58.078Z,100571.60
2023-05-05T21:03:25.940Z,100567.20
2023-05-05T21:05:54.293Z,100564.00
2023-05-05T21:08:22.299Z,100565.60
2023-05-05T21:10:50.204Z,100571.00
2023-05-05T21:13:18.223Z,100569.40
2023-05-05T21:15:46.320Z,100572.20
2023-05-05T21:18:14.204Z,100563.60
2023-05-05T21:20:42.265Z,100564.40
2023-05-05T21:23:10.123Z,100574.20
2023-05-05T21:25:37.991Z,100574.40
2023-05-05T21:28:05.943Z,100573.60
2023-05-05T21:30:33.918Z,100574.00
2023-05-05T21:33:01.929Z,100569.60
2023-05-05T21:35:30.039Z,100570.40
2023-05-05T21:37:58.111Z,100577.80
2023-05-05T21:40:26.342Z,100583.40
2023-05-05T21:42:54.156Z,100582.00
2023-05-05T21:45:22.135Z,100587.00
2023-05-05T21:47:50.368Z,100587.60
2023-05-05T21:50:18.325Z,100588.20
2023-05-05T21:52:46.179Z,100587.80
2023-05-05T21:55:13.971Z,100589.60
2023-05-05T21:57:41.734Z,100592.60
2023-05-05T22:00:16.571Z,100597.00
2023-05-05T22:02:45.479Z,100596.60
2023-05-05T22:05:13.485Z,100600.20
2023-05-05T22:07:41.431Z,100606.20
2023-05-05T22:10:09.933Z,100600.00
2023-05-05T22:12:38.098Z,100605.20
2023-05-05T22:15:06.850Z,100598.60
2023-05-05T22:17:35.287Z,100596.20
2023-05-05T22:20:05.054Z,100597.20
2023-05-05T22:22:33.141Z,100590.20
2023-05-05T22:25:01.087Z,100590.20
2023-05-05T22:27:28.831Z,100588.40
2023-05-05T22:29:57.495Z,100588.00
2023-05-05T22:32:25.575Z,100588.00
2023-05-05T22:34:53.380Z,100586.60
2023-05-05T22:37:21.472Z,100583.80
2023-05-05T22:39:49.446Z,100578.20
2023-05-05T22:42:17.318Z,100577.80
2023-05-05T22:44:45.148Z,100581.20
2023-05-05T22:47:13.391Z,100575.60
2023-05-05T22:49:41.264Z,100580.40
2023-05-05T22:52:09.071Z,100575.80
2023-05-05T22:54:37.009Z,100580.40
2023-05-05T22:57:04.768Z,100581.20
2023-05-05T22:59:32.532Z,100577.20
2023-05-05T23:02:00.407Z,100571.80
2023-05-05T23:04:28.289Z,100576.20
2023-05-05T23:06:56.766Z,100575.00
2023-05-05T23:09:24.601Z,100574.60
2023-05-05T23:11:52.451Z,100573.00
2023-05-05T23:14:20.397Z,100573.60
2023-05-05T23:16:48.451Z,100575.80
2023-05-05T23:19:16.224Z,100573.80
2023-05-05T23:21:52.797Z,100571.80
2023-05-05T23:24:22.276Z,100570.40
2023-05-05T23:26:51.909Z,100568.00
2023-05-05T23:29:20.636Z,100566.00
2023-05-05T23:31:48.663Z,100573.20
2023-05-05T23:34:16.650Z,100576.00
2023-05-05T23:36:44.704Z,100574.20
2023-05-05T23:39:12.511Z,100571.80
2023-05-05T23:41:40.373Z,100574.20
2023-05-05T23:44:08.309Z,100567.60
2023-05-05T23:46:36.269Z,100570.60
2023-05-05T23:49:04.258Z,100572.00
2023-05-05T23:51:32.115Z,100575.60
2023-05-05T23:53:59.900Z,100572.20
2023-05-05T23:56:27.766Z,100571.40
2023-05-05T23:58:56.226Z,100573.20
